Home > Products > Valid Products > TAF

000
FTUS45 KABQ 181700
TAFTCC
TAF
KTCC 181725Z 1818/1918 22018G28KT P6SM BKN250
     FM190200 19015KT P6SM BKN200
     FM190900 22011KT P6SM BKN120=



000
FTUS45 KABQ 181700
TAFROW
TAF
KROW 181725Z 1818/1918 16010KT P6SM BKN015
     FM181900 16014G22KT P6SM OVC200
     FM190200 15010KT P6SM BKN150
     FM190600 14010KT P6SM VCSH SCT050 BKN080=



000
FTUS45 KABQ 181700
TAFABQ
TAF
KABQ 181725Z 1818/1918 18010KT P6SM BKN250
     FM182130 19015G25KT P6SM FEW120 OVC200
     FM190200 19011KT P6SM BKN140
     FM190900 VRB05KT P6SM BKN120=



000
FTUS45 KABQ 181700
TAFLVS
TAF
KLVS 181725Z 1818/1918 20022G32KT P6SM BKN250
     FM190200 20016KT P6SM SCT150 BKN200
     FM190900 21012KT P6SM SCT060 BKN100=



000
FTUS45 KABQ 181700
TAFGUP
TAF
KGUP 181725Z 1818/1918 21018G27KT P6SM SCT120 BKN200
     FM190200 22016KT P6SM BKN100
     FM190500 22015KT P6SM VCSH BKN050 OVC100
     FM191200 21006KT P6SM SCT070 BKN100=



000
FTUS45 KABQ 181700
TAFSAF
TAF
KSAF 181725Z 1818/1918 20011KT P6SM BKN250
     FM182200 21014G22KT P6SM SCT110 BKN200
     FM190200 17009KT P6SM BKN110
     FM190900 15007KT P6SM VCSH SCT060 OVC100=



000
FTUS45 KABQ 181700
TAFFMN
TAF
KFMN 181725Z 1818/1918 11008KT P6SM BKN250
     FM182000 20013KT P6SM SCT120 OVC200
     FM182230 22014G22KT P6SM BKN110
     FM190200 24008KT P6SM BKN100
     FM190800 VRB05KT P6SM VCSH BKN050 OVC100=



000
FTUS45 KABQ 181600 AAA
TAFGUP
TAF AMD
KGUP 181656Z 1817/1912 20016KT P6SM SCT120 OVC200
     FM181930 22016G26KT P6SM BKN100
     FM190200 20011KT P6SM BKN080
     FM190600 19007KT P6SM VCSH BKN050 OVC100=



000
FTUS45 KABQ 181500 AAA
TAFROW
TAF AMD
KROW 181529Z 1815/1912 16010KT P6SM SCT035
      TEMPO 1815/1818 OVC009
     FM181900 16013G19KT P6SM SCT200
     FM190200 17010KT P6SM BKN150=



000
FTUS45 KABQ 181400 AAA
TAFTCC
TAF AMD
KTCC 181405Z 1814/1912 21006KT P6SM BKN025
      TEMPO 1814/1816 BKN015
     FM181600 22013G20KT P6SM FEW040
     FM182000 20017G28KT P6SM FEW250
     FM190200 19015KT P6SM BKN200=



000
FTUS45 KABQ 181100
TAFTCC
TAF
KTCC 181140Z 1812/1912 21006KT P6SM FEW025
      TEMPO 1812/1814 BKN015
     FM181500 22013G20KT P6SM FEW040
     FM182000 20017G28KT P6SM FEW250
     FM190200 19015KT P6SM BKN200=



000
FTUS45 KABQ 181100
TAFGUP
TAF
KGUP 181140Z 1812/1912 VRB03KT P6SM BKN200
     FM181700 21012KT P6SM SCT120 BKN200
     FM182100 22016G26KT P6SM BKN100
     FM190200 20011KT P6SM BKN080
     FM190600 19007KT P6SM VCSH BKN050 OVC100=



000
FTUS45 KABQ 181100
TAFLVS
TAF
KLVS 181140Z 1812/1912 19013KT P6SM FEW250
     FM181700 20015G22KT P6SM FEW250
     FM182000 20020G30KT P6SM BKN250
     FM190200 20015G22KT P6SM SCT150 BKN200
     FM190800 20012KT P6SM SCT060 BKN100=



000
FTUS45 KABQ 181100
TAFABQ
TAF
KABQ 181140Z 1812/1912 35007KT P6SM BKN250
     FM181800 20011KT P6SM BKN200
     FM182100 19015G25KT P6SM SCT150
     FM190300 19012KT P6SM BKN150=



000
FTUS45 KABQ 181100
TAFROW
TAF
KROW 181140Z 1812/1912 18010KT P6SM BKN020 OVC030
      TEMPO 1812/1816 4SM BR OVC010
     FM181600 17011KT P6SM SCT040
     FM181900 16013G19KT P6SM FEW200
     FM190200 17010KT P6SM BKN150=



000
FTUS45 KABQ 181100
TAFFMN
TAF
KFMN 181140Z 1812/1912 11008KT P6SM SCT250
     FM181900 20010KT P6SM SCT100 BKN200
     FM182200 22014G22KT P6SM BKN100
     FM190200 21006KT P6SM BKN080
     FM190600 21007KT P6SM VCSH BKN050 OVC100=



000
FTUS45 KABQ 181100
TAFSAF
TAF
KSAF 181140Z 1812/1912 13006KT P6SM SCT250
     FM181700 20013KT P6SM SCT250
     FM182200 21014G22KT P6SM SCT090 SCT150
     FM190200 20009KT P6SM BKN120
     FM190800 22010KT P6SM VCSH BKN050 OVC100=



000
FTUS45 KABQ 181000 AAA
TAFTCC
TAF AMD
KTCC 181053Z 1811/1906 24007KT P6SM SCT020
      TEMPO 1811/1814 BKN015
     FM181500 22013KT P6SM FEW050
     FM182000 20015G25KT P6SM FEW250
     FM190200 19014KT P6SM BKN200=



000
FTUS45 KABQ 181000 AAA
TAFROW
TAF AMD
KROW 181039Z 1811/1906 18010KT P6SM BKN020 OVC030
      TEMPO 1811/1814 4SM BR OVC010
     FM181600 17011KT P6SM SCT040
     FM181900 16013G19KT P6SM FEW200
     FM190200 17010KT P6SM BKN200=



000
FTUS45 KABQ 180500
TAFTCC
TAF
KTCC 180524Z 1806/1906 17006KT P6SM SKC
     FM181000 21006KT P6SM FEW025
     FM181500 22013KT P6SM FEW050
     FM182000 20015G25KT P6SM FEW250
     FM190200 19014KT P6SM BKN200=



000
FTUS45 KABQ 180500
TAFABQ
TAF
KABQ 180524Z 1806/1906 10015KT P6SM FEW250
     FM181100 13007KT P6SM SCT250
     FM181800 19011KT P6SM BKN250
     FM182100 19015G25KT P6SM SCT150 BKN200
     FM190300 20012KT P6SM BKN150=



000
FTUS45 KABQ 180500
TAFGUP
TAF
KGUP 180524Z 1806/1906 VRB03KT P6SM SCT250
     FM181700 20012KT P6SM SCT120 BKN200
     FM182100 22013G21KT P6SM BKN100
     FM190200 20011KT P6SM BKN080=



000
FTUS45 KABQ 180500
TAFFMN
TAF
KFMN 180524Z 1806/1906 09009KT P6SM SCT250
     FM181900 21010KT P6SM SCT100 BKN200
     FM182200 22013G19KT P6SM BKN100
     FM190200 21007KT P6SM BKN080=



000
FTUS45 KABQ 180500
TAFLVS
TAF
KLVS 180524Z 1806/1906 19009KT P6SM SKC
     FM181700 20014KT P6SM FEW250
     FM182000 20019G29KT P6SM BKN250
     FM190200 20013G19KT P6SM SCT150 BKN200=



000
FTUS45 KABQ 180500
TAFROW
TAF
KROW 180524Z 1806/1906 18005KT P6SM SKC
     FM181100 15009KT P6SM BKN025
     FM181600 17011KT P6SM SCT040
     FM181900 16013G19KT P6SM FEW200
     FM190200 17010KT P6SM BKN200=



000
FTUS45 KABQ 180500
TAFSAF
TAF
KSAF 180524Z 1806/1906 13014KT P6SM SKC
     FM181100 12006KT P6SM FEW250
     FM181700 20013KT P6SM SCT250
     FM182200 21013G19KT P6SM SCT150 BKN200
     FM190200 20009KT P6SM BKN150=



000
FTUS45 KABQ 180400 AAA
TAFABQ
TAF AMD
KABQ 180400Z 1804/1824 10013KT P6SM FEW250
     FM181100 08005KT P6SM SCT250
     FM181700 19011KT P6SM BKN250=



000
FTUS45 KABQ 172300
TAFTCC
TAF
KTCC 172323Z 1800/1824 09009KT P6SM SCT070
     FM180300 15007KT P6SM SKC
     FM181000 21006KT P6SM FEW025
     FM181500 22013KT P6SM FEW050=



000
FTUS45 KABQ 172300
TAFROW
TAF
KROW 172323Z 1800/1824 05008KT P6SM SKC
     FM180600 18005KT P6SM SKC
     FM181100 15009KT P6SM BKN025
     FM181600 17011KT P6SM BKN040=



000
FTUS45 KABQ 172300
TAFSAF
TAF
KSAF 172323Z 1800/1824 16013KT P6SM FEW080
     FM180200 12009KT P6SM SKC
     FM181700 20010KT P6SM FEW250=



000
FTUS45 KABQ 172300
TAFGUP
TAF
KGUP 172323Z 1800/1824 26010KT P6SM FEW050
     FM180200 VRB03KT P6SM SKC
     FM181600 20011KT P6SM FEW200=



000
FTUS45 KABQ 172300
TAFFMN
TAF
KFMN 172323Z 1800/1824 30012KT P6SM SKC
     FM180200 09009KT P6SM SKC=



000
FTUS45 KABQ 172300
TAFABQ
TAF
KABQ 172323Z 1800/1824 15008KT P6SM FEW060
     FM180600 11015KT P6SM SKC
     FM181100 08005KT P6SM SKC
     FM181700 19011KT P6SM FEW250=



000
FTUS45 KABQ 172300
TAFLVS
TAF
KLVS 172323Z 1800/1824 17012G18KT P6SM FEW050
     FM180200 18009KT P6SM SKC
     FM181700 20014KT P6SM FEW250=



000
FTUS45 KABQ 171700
TAFTCC
TAF
KTCC 171727Z 1718/1818 05015KT P6SM SCT040
     FM172000 09009KT P6SM SCT070
     FM180300 13007KT P6SM SKC
     FM181400 21015KT P6SM SKC=



000
FTUS45 KABQ 171700
TAFGUP
TAF
KGUP 171727Z 1718/1818 VRB05KT P6SM SKC
     FM172100 26010KT P6SM SKC
     FM180200 VRB03KT P6SM SKC=



000
FTUS45 KABQ 171700
TAFSAF
TAF
KSAF 171727Z 1718/1818 17013KT P6SM FEW060
     FM172000 22011KT P6SM FEW080
     FM180200 14010KT P6SM SKC=



000
FTUS45 KABQ 171700
TAFABQ
TAF
KABQ 171727Z 1718/1818 19007KT P6SM SKC
     FM180200 13008KT P6SM SKC
     FM180600 10015KT P6SM SKC
     FM181200 11007KT P6SM SKC=



000
FTUS45 KABQ 171700
TAFFMN
TAF
KFMN 171727Z 1718/1818 VRB05KT P6SM SKC=



000
FTUS45 KABQ 171700
TAFROW
TAF
KROW 171727Z 1718/1818 36015KT P6SM SKC
     FM172000 03010KT P6SM SKC
     FM180100 10008KT P6SM SKC
     FM181100 15008KT P6SM BKN025=



000
FTUS45 KABQ 171700
TAFLVS
TAF
KLVS 171727Z 1718/1818 07007KT P6SM SCT030 BKN040
      TEMPO 1718/1719 BKN025
     FM171900 15010KT P6SM SCT060
     FM172130 19015G25KT P6SM FEW070
     FM180200 18008KT P6SM SKC=



000
FTUS45 KABQ 171400 AAB
TAFLVS
TAF AMD
KLVS 171426Z 1714/1812 07010KT P6SM SCT025 OVC040
      TEMPO 1714/1717 BKN020
     FM171800 05009KT P6SM FEW025 BKN050
     FM171930 16010KT P6SM SCT060
     FM172100 19012G20KT P6SM SCT100
     FM180300 18008KT P6SM FEW200=



000
FTUS45 KABQ 171300 AAA
TAFLVS
TAF AMD
KLVS 171334Z 1714/1812 01012KT P6SM VCSH SCT025 OVC040
      TEMPO 1713/1715 BKN020
     FM171600 05009KT P6SM FEW025 BKN050
     FM171800 16010KT P6SM SCT060
     FM172100 19012G20KT P6SM SCT100
     FM180300 18008KT P6SM FEW200=



000
FTUS45 KABQ 171100
TAFFMN
TAF
KFMN 171128Z 1712/1812 VRB06KT P6SM FEW100
     FM172000 28008KT P6SM FEW250
     FM180200 VRB06KT P6SM SCT200=



000
FTUS45 KABQ 171100
TAFROW
TAF
KROW 171128Z 1712/1812 35015G25KT P6SM SKC
     FM172100 03010KT P6SM SKC
     FM180100 10008KT P6SM SKC
      TEMPO 1810/1812 SCT010=



000
FTUS45 KABQ 171100
TAFSAF
TAF
KSAF 171128Z 1712/1812 12010KT P6SM FEW120
     FM171500 17008KT P6SM FEW060
     FM172000 22011KT P6SM FEW080
     FM180200 14010KT P6SM FEW200=



000
FTUS45 KABQ 171100
TAFGUP
TAF
KGUP 171128Z 1712/1812 VRB05KT P6SM FEW120
     FM171800 26010KT P6SM SCT250
     FM180200 VRB03KT P6SM SKC=



000
FTUS45 KABQ 171100
TAFTCC
TAF
KTCC 171128Z 1712/1812 03015KT P6SM SCT040
      TEMPO 1713/1716 BKN040
     FM171600 06012KT P6SM BKN050
     FM172000 11009KT P6SM SCT070
     FM180300 14008KT P6SM FEW100=



000
FTUS45 KABQ 171100
TAFABQ
TAF
KABQ 171128Z 1712/1812 09012KT P6SM FEW120
     FM171500 15007KT P6SM FEW050
     FM172000 21010KT P6SM FEW100
     FM180200 15008KT P6SM FEW200=



000
FTUS45 KABQ 171100
TAFLVS
TAF
KLVS 171128Z 1712/1812 01012KT P6SM VCSH SCT025 OVC040
     FM171500 05009KT P6SM FEW025 BKN050
     FM171800 16010KT P6SM SCT060
     FM172100 19012G20KT P6SM SCT100
     FM180300 18008KT P6SM FEW200=



000
FTUS45 KABQ 170500
TAFFMN
TAF
KFMN 170537Z 1706/1806 32009KT P6SM BKN090
     FM170700 07007KT P6SM FEW090 SCT250
     FM171900 28008KT P6SM SCT250=



000
FTUS45 KABQ 170500
TAFSAF
TAF
KSAF 170537Z 1706/1806 36008KT P6SM BKN100
     FM170700 14012G20KT P6SM BKN050
     FM171500 17008KT P6SM SCT060 SCT250
     FM172000 22010KT P6SM FEW080 SCT250=



000
FTUS45 KABQ 170500
TAFGUP
TAF
KGUP 170537Z 1706/1806 02006KT P6SM FEW120 SCT250
     FM171800 26010KT P6SM SCT250=



000
FTUS45 KABQ 170500
TAFLVS
TAF
KLVS 170537Z 1706/1806 03011KT P6SM VCSH BKN025
      TEMPO 1708/1712 3SM BR BKN012
     FM171500 05008KT P6SM BKN015
      TEMPO 1715/1718 SCT030 SCT250
     FM171800 18015KT P6SM SCT060 SCT250=



000
FTUS45 KABQ 170500
TAFABQ
TAF
KABQ 170537Z 1706/1806 35013KT P6SM BKN120 BKN200
     FM170700 03015KT P6SM SCT120 SCT250
      TEMPO 1707/1711 09015KT SCT050 SCT120
     FM171500 03007KT P6SM SCT050 SCT250
     FM171800 22010KT P6SM FEW080 SCT250=



000
FTUS45 KABQ 170500
TAFTCC
TAF
KTCC 170537Z 1706/1806 03022G32KT P6SM BKN080
     FM170900 03019G29KT P6SM BKN045
     FM171200 05013KT P6SM BKN040
     FM171500 06008KT P6SM SCT050 SCT250
     FM172000 12007KT P6SM SCT070 SCT250=



000
FTUS45 KABQ 170500
TAFROW
TAF
KROW 170537Z 1706/1806 01020G30KT P6SM SCT060 BKN100
     FM171500 02015KT P6SM SCT050 SCT120
     FM172000 07007KT P6SM SCT070 SCT250=



000
FTUS45 KABQ 162300
TAFABQ
TAF
KABQ 162330Z 1700/1724 33015G25KT P6SM BKN120 BKN200
     FM170200 35015KT P6SM BKN120 BKN200
     FM170700 03015KT P6SM SCT120 SCT250
      TEMPO 1707/1711 09015KT SCT050 SCT120
     FM171500 03007KT P6SM SCT050 SCT250
     FM171800 22010KT P6SM FEW080 SCT250=



000
FTUS45 KABQ 162300
TAFGUP
TAF
KGUP 162330Z 1700/1724 28015G25KT P6SM SCT120 BKN250
     FM170200 31010KT P6SM BKN120
     FM170400 02006KT P6SM FEW120 SCT250
     FM171800 26010KT P6SM SCT250=



000
FTUS45 KABQ 162300
TAFSAF
TAF
KSAF 162330Z 1700/1724 27015G25KT P6SM BKN100
     FM170200 36012KT P6SM BKN100
     FM170600 14012G20KT P6SM BKN050
     FM171500 17008KT P6SM SCT060 SCT250
     FM172000 22010KT P6SM FEW080 SCT250=



000
FTUS45 KABQ 162300
TAFTCC
TAF
KTCC 162330Z 1700/1724 07020G30KT P6SM BKN250
     FM170030 03027G37KT P6SM SCT080
     FM170300 03019G29KT P6SM SCT060
     FM171200 05013KT P6SM BKN040
     FM171500 06008KT P6SM SCT050 SCT250
     FM172000 12007KT P6SM SCT070 SCT250=



000
FTUS45 KABQ 162300
TAFLVS
TAF
KLVS 162330Z 1700/1724 28012G20KT P6SM SCT100 BKN200
     FM170100 03012G20KT P6SM SCT070
     FM170600 03011KT 3SM BR BKN010
     FM171500 05008KT P6SM BKN015
      TEMPO 1715/1718 SCT030 SCT250
     FM171800 18015KT P6SM SCT060 SCT250=



000
FTUS45 KABQ 162300
TAFROW
TAF
KROW 162330Z 1700/1724 12012KT P6SM SCT250
     FM170300 01020G30KT P6SM SCT050 BKN200
     FM171500 02015KT P6SM SCT050 SCT150
     FM172000 07007KT P6SM SCT070 SCT250=



000
FTUS45 KABQ 162300
TAFFMN
TAF
KFMN 162330Z 1700/1724 29015G25KT P6SM BKN090 BKN150
     FM170100 31009KT P6SM BKN090
     FM170500 07007KT P6SM FEW090 SCT250
     FM171900 28008KT P6SM SCT250=



000
FTUS45 KABQ 162200 AAB
TAFLVS
TAF AMD
KLVS 162213Z 1622/1718 28012G29KT P6SM SCT110 BKN200
     FM170000 03012G20KT P6SM SCT070
     FM170600 03011KT 3SM BR BKN010=



000
FTUS45 KABQ 162100 AAA
TAFLVS
TAF AMD
KLVS 162123Z 1621/1718 VRB06KT P6SM SCT110 BKN200
     FM170000 03012G20KT P6SM SCT070
     FM170600 03011KT 3SM BR BKN010=



000
FTUS45 KABQ 162100 AAA
TAFABQ
TAF AMD
KABQ 162121Z 1621/1718 32011KT P6SM FEW150 BKN250
     FM170000 33015G25KT P6SM BKN120
     FM170200 35013KT P6SM SCT150
     FM170700 08015KT P6SM SKC=



000
FTUS45 KABQ 162000 AAA
TAFTCC
TAF AMD
KTCC 162004Z 1620/1718 05020G30KT P6SM BKN250
     FM170030 03027G37KT P6SM SCT080
     FM170300 03019G29KT P6SM SCT060
     FM170900 05013KT P6SM BKN030=



000
FTUS45 KABQ 161700
TAFSAF
TAF
KSAF 161736Z 1618/1718 25015KT P6SM SCT250
     FM162000 26015G22KT P6SM BKN250
     FM170000 32019G29KT P6SM BKN100
     FM170200 36012KT P6SM SCT110
     FM170600 15010KT P6SM SKC=



000
FTUS45 KABQ 161700
TAFLVS
TAF
KLVS 161736Z 1618/1718 21013KT P6SM SCT250
     FM161930 23015G25KT P6SM BKN250
     FM162230 30015G22KT P6SM BKN120
     FM170030 03012G20KT P6SM SCT070
     FM170700 03011KT 3SM BR BKN010=



000
FTUS45 KABQ 161700
TAFROW
TAF
KROW 161736Z 1618/1718 17011KT P6SM SKC
     FM162300 25011KT P6SM SCT250
     FM170300 01020G30KT P6SM BKN200
     FM170600 02015KT P6SM SCT150=



000
FTUS45 KABQ 161700
TAFGUP
TAF
KGUP 161736Z 1618/1718 28015G24KT P6SM SCT150 BKN250
     FM170100 31011KT P6SM BKN120
     FM170400 02006KT P6SM SCT250=



000
FTUS45 KABQ 161700
TAFTCC
TAF
KTCC 161736Z 1618/1718 27015KT P6SM SCT250
     FM162000 31015KT P6SM SCT250
     FM162230 04024G34KT P6SM BKN200
     FM170100 03027G37KT P6SM SCT080
     FM170300 03019G29KT P6SM SCT060
     FM170900 05013KT P6SM BKN030=



000
FTUS45 KABQ 161700
TAFABQ
TAF
KABQ 161736Z 1618/1718 23007KT P6SM SCT250
     FM162030 30011G17KT P6SM FEW150 BKN250
     FM170000 33018G28KT P6SM BKN120
     FM170200 35013KT P6SM SCT150
     FM170700 08015KT P6SM SKC=



000
FTUS45 KABQ 161700
TAFFMN
TAF
KFMN 161736Z 1618/1718 24007KT P6SM SCT150 OVC200
     FM161930 29015G25KT P6SM BKN120 OVC200
     FM170100 31009KT P6SM BKN100
     FM170400 VRB05KT P6SM SCT250=



000
FTUS45 KABQ 161100
TAFSAF
TAF
KSAF 161124Z 1612/1712 33007KT P6SM SKC
     FM161600 25007KT P6SM SCT250
     FM162000 27015G22KT P6SM BKN250
     FM170000 32015G26KT P6SM BKN090
     FM170300 36010KT P6SM FEW090 FEW250=



000
FTUS45 KABQ 161100
TAFGUP
TAF
KGUP 161124Z 1612/1712 VRB03KT P6SM SKC
     FM161500 25006KT P6SM FEW250
     FM161800 28012G18KT P6SM BKN150 BKN250
     FM170000 33013KT P6SM BKN090
     FM170200 03009KT P6SM SCT250=



000
FTUS45 KABQ 161100
TAFFMN
TAF
KFMN 161124Z 1612/1712 08005KT P6SM SKC
     FM161500 24007KT P6SM SCT150 SCT250
     FM161800 29015G25KT P6SM BKN120 BKN200
     FM170000 31009KT P6SM BKN090
     FM170300 32007KT P6SM SCT250=



000
FTUS45 KABQ 161100
TAFTCC
TAF
KTCC 161124Z 1612/1712 24012KT P6SM SCT250
     FM161800 29015KT P6SM BKN150 BKN250
     FM162200 04024G34KT P6SM BKN120
     FM170400 03020G30KT P6SM BKN080=



000
FTUS45 KABQ 161100
TAFLVS
TAF
KLVS 161124Z 1612/1712 21013KT P6SM FEW250
     FM161800 26015G25KT P6SM BKN250
     FM162300 31015G22KT P6SM BKN070
     FM170200 03012G20KT P6SM SCT070
     FM171000 03008KT 4SM BR BKN010=



000
FTUS45 KABQ 161100
TAFABQ
TAF
KABQ 161124Z 1612/1712 VRB04KT P6SM SKC
     FM161700 24007KT P6SM SCT250
     FM162000 30011G17KT P6SM FEW150 BKN250
     FM170000 34015G25KT P6SM BKN100
     FM170500 36010KT P6SM FEW250=



000
FTUS45 KABQ 161100
TAFROW
TAF
KROW 161124Z 1612/1712 17012KT P6SM SKC
     FM162300 VRB06KT P6SM SCT250
     FM170100 36018G28KT P6SM BKN200
     FM170600 02015KT P6SM BKN150=



000
FTUS45 KABQ 160500
TAFROW
TAF
KROW 160524Z 1606/1706 18015KT P6SM BKN250
     FM162100 24015KT P6SM BKN250=



000
FTUS45 KABQ 160500
TAFSAF
TAF
KSAF 160524Z 1606/1706 25007KT P6SM BKN250
      TEMPO 1610/1614 35007KT
     FM161600 28007KT P6SM SCT150 BKN250
     FM162000 28015G22KT P6SM BKN150 BKN250
     FM162300 31018G28KT P6SM BKN120=



000
FTUS45 KABQ 160500
TAFFMN
TAF
KFMN 160524Z 1606/1706 VRB06KT P6SM BKN250
     FM161500 24007KT P6SM SCT150 SCT250
     FM162000 30015G25KT P6SM BKN150 BKN250=



000
FTUS45 KABQ 160500
TAFLVS
TAF
KLVS 160524Z 1606/1706 21013KT P6SM BKN250
     FM161800 26015G25KT P6SM BKN120 BKN250
     FM162300 03015G22KT P6SM VCSH BKN070 BKN120=



000
FTUS45 KABQ 160500
TAFGUP
TAF
KGUP 160524Z 1606/1706 22008KT P6SM BKN250
     FM161500 25010KT P6SM SCT150 SCT250
     FM162000 27015KT P6SM BKN150 BKN250
     FM170100 03012KT P6SM BKN120=



000
FTUS45 KABQ 160500
TAFTCC
TAF
KTCC 160524Z 1606/1706 22018G28KT P6SM BKN250
     FM161200 24015KT P6SM SCT250
     FM161800 29015KT P6SM BKN150 BKN250
     FM162200 04015G22KT P6SM VCSH BKN070 BKN120=



000
FTUS45 KABQ 160500
TAFABQ
TAF
KABQ 160524Z 1606/1706 19012G20KT P6SM BKN250
     FM160800 21008KT P6SM BKN250
     FM161600 24007KT P6SM SCT150 SCT250
     FM162000 30015KT P6SM BKN150 BKN250
     FM170000 36015G25KT P6SM BKN120=



000
FTUS45 KABQ 160300 AAA
TAFABQ
TAF AMD
KABQ 160355Z 1604/1624 19012G20KT P6SM BKN250
     FM160600 21008KT P6SM BKN250
     FM161600 24007KT P6SM SCT150 BKN250
     FM162000 30015KT P6SM BKN150 BKN250=



000
FTUS45 KABQ 152300
TAFABQ
TAF
KABQ 152325Z 1600/1624 19008G15KT P6SM BKN250
     FM160200 16006KT P6SM BKN250
     FM161600 24007KT P6SM SCT150 BKN250
     FM162000 30015KT P6SM BKN150 BKN250=



000
FTUS45 KABQ 152300
TAFTCC
TAF
KTCC 152325Z 1600/1624 21022G32KT P6SM SCT250
     FM160200 21015KT P6SM BKN250
     FM161200 24015KT P6SM BKN250
     FM161800 28015KT P6SM BKN150 BKN250
     FM162200 04015G22KT P6SM VCSH BKN070 BKN120=



000
FTUS45 KABQ 152300
TAFSAF
TAF
KSAF 152325Z 1600/1624 24012G20KT P6SM BKN250
     FM160200 21007KT P6SM BKN250
     FM161600 28007KT P6SM SCT150 BKN250
     FM162000 28015G22KT P6SM BKN150 BKN250=



000
FTUS45 KABQ 152300
TAFFMN
TAF
KFMN 152325Z 1600/1624 26012KT P6SM BKN250
     FM160300 VRB06KT P6SM BKN250
     FM161500 24007KT P6SM SCT150 BKN250
     FM162000 28015KT P6SM BKN150 BKN250=



000
FTUS45 KABQ 152300
TAFROW
TAF
KROW 152325Z 1600/1624 17015G25KT P6SM SCT250
     FM160200 18010KT P6SM SCT250
     FM161000 15007KT P6SM BKN250
     FM162100 24013KT P6SM BKN250=



000
FTUS45 KABQ 152300
TAFGUP
TAF
KGUP 152325Z 1600/1624 24015G22KT P6SM BKN250
     FM160200 22006KT P6SM BKN250
     FM160600 VRB06KT P6SM BKN250
     FM161500 25006KT P6SM SCT150 BKN250
     FM162000 27015KT P6SM BKN150 BKN250=



000
FTUS45 KABQ 152300
TAFLVS
TAF
KLVS 152325Z 1600/1624 24018G28KT P6SM BKN250
     FM160200 21013KT P6SM BKN250
     FM161800 26015KT P6SM BKN120 BKN250
     FM162300 03015G22KT P6SM VCSH BKN070 BKN120=



    US Dept of Commerce
    National Oceanic and Atmospheric Administration
    National Weather Service
    1325 East West Highway
    Silver Spring, MD 20910
    Page Author: NWS Internet Services Team
Disclaimer
Information Quality
Credits
Glossary
Privacy Policy
Freedom of Information Act (FOIA)
About Us
Career Opportunities